sensor_id;sensor_type;location;lat;lon;timestamp;P1;durP1;ratioP1;P2;durP2;ratioP2
57923;SDS011;43737;50.632;3.070;2022-07-10T00:00:28;11.55;;;3.25;;
57923;SDS011;43737;50.632;3.070;2022-07-10T00:02:54;6.68;;;3.17;;
57923;SDS011;43737;50.632;3.070;2022-07-10T00:05:20;7.90;;;3.88;;
57923;SDS011;43737;50.632;3.070;2022-07-10T00:07:47;8.85;;;3.30;;
57923;SDS011;43737;50.632;3.070;2022-07-10T00:10:13;11.50;;;3.63;;
57923;SDS011;43737;50.632;3.070;2022-07-10T00:12:39;11.13;;;3.53;;
57923;SDS011;43737;50.632;3.070;2022-07-10T00:15:05;8.85;;;3.35;;
57923;SDS011;43737;50.632;3.070;2022-07-10T00:17:32;11.48;;;3.70;;
57923;SDS011;43737;50.632;3.070;2022-07-10T00:19:58;9.35;;;3.63;;
57923;SDS011;43737;50.632;3.070;2022-07-10T00:22:24;8.48;;;3.85;;
57923;SDS011;43737;50.632;3.070;2022-07-10T00:24:51;16.95;;;4.45;;
57923;SDS011;43737;50.632;3.070;2022-07-10T00:27:17;7.57;;;3.53;;
57923;SDS011;43737;50.632;3.070;2022-07-10T00:29:44;9.55;;;3.70;;
57923;SDS011;43737;50.632;3.070;2022-07-10T00:32:10;12.27;;;4.28;;
57923;SDS011;43737;50.632;3.070;2022-07-10T00:34:36;9.75;;;4.28;;
57923;SDS011;43737;50.632;3.070;2022-07-10T00:37:03;11.00;;;3.38;;
57923;SDS011;43737;50.632;3.070;2022-07-10T00:39:29;11.07;;;4.07;;
57923;SDS011;43737;50.632;3.070;2022-07-10T00:42:05;10.68;;;4.40;;
57923;SDS011;43737;50.632;3.070;2022-07-10T00:44:31;11.23;;;4.40;;
57923;SDS011;43737;50.632;3.070;2022-07-10T00:46:57;16.45;;;5.53;;
57923;SDS011;43737;50.632;3.070;2022-07-10T00:49:23;11.23;;;4.10;;
57923;SDS011;43737;50.632;3.070;2022-07-10T00:51:49;16.05;;;4.28;;
57923;SDS011;43737;50.632;3.070;2022-07-10T00:54:16;10.88;;;4.50;;
57923;SDS011;43737;50.632;3.070;2022-07-10T00:56:42;11.77;;;4.80;;
57923;SDS011;43737;50.632;3.070;2022-07-10T00:59:08;12.63;;;5.55;;
57923;SDS011;43737;50.632;3.070;2022-07-10T01:01:35;15.80;;;5.03;;
57923;SDS011;43737;50.632;3.070;2022-07-10T01:04:01;9.20;;;4.95;;
57923;SDS011;43737;50.632;3.070;2022-07-10T01:06:27;17.52;;;5.88;;
57923;SDS011;43737;50.632;3.070;2022-07-10T01:08:53;17.38;;;5.10;;
57923;SDS011;43737;50.632;3.070;2022-07-10T01:11:19;14.95;;;5.32;;
57923;SDS011;43737;50.632;3.070;2022-07-10T01:13:46;12.32;;;4.63;;
57923;SDS011;43737;50.632;3.070;2022-07-10T01:16:12;13.02;;;5.93;;
57923;SDS011;43737;50.632;3.070;2022-07-10T01:18:39;14.63;;;4.80;;
57923;SDS011;43737;50.632;3.070;2022-07-10T01:21:05;14.48;;;6.20;;
57923;SDS011;43737;50.632;3.070;2022-07-10T01:23:31;11.55;;;5.93;;
57923;SDS011;43737;50.632;3.070;2022-07-10T01:25:57;11.48;;;5.80;;
57923;SDS011;43737;50.632;3.070;2022-07-10T01:28:23;11.75;;;5.50;;
57923;SDS011;43737;50.632;3.070;2022-07-10T01:30:50;12.23;;;5.38;;
57923;SDS011;43737;50.632;3.070;2022-07-10T01:33:16;19.40;;;5.95;;
57923;SDS011;43737;50.632;3.070;2022-07-10T01:35:42;10.73;;;5.05;;
57923;SDS011;43737;50.632;3.070;2022-07-10T01:38:09;15.50;;;6.15;;
57923;SDS011;43737;50.632;3.070;2022-07-10T01:40:35;16.80;;;5.40;;
57923;SDS011;43737;50.632;3.070;2022-07-10T01:43:01;18.92;;;7.32;;
57923;SDS011;43737;50.632;3.070;2022-07-10T01:45:27;11.70;;;5.63;;
57923;SDS011;43737;50.632;3.070;2022-07-10T01:47:53;14.27;;;5.50;;
57923;SDS011;43737;50.632;3.070;2022-07-10T01:50:19;13.68;;;6.22;;
57923;SDS011;43737;50.632;3.070;2022-07-10T01:52:45;10.10;;;5.13;;
57923;SDS011;43737;50.632;3.070;2022-07-10T01:55:11;16.58;;;6.10;;
57923;SDS011;43737;50.632;3.070;2022-07-10T01:57:37;14.10;;;5.03;;
57923;SDS011;43737;50.632;3.070;2022-07-10T02:00:03;13.45;;;5.38;;
57923;SDS011;43737;50.632;3.070;2022-07-10T02:02:29;14.75;;;5.63;;
57923;SDS011;43737;50.632;3.070;2022-07-10T02:04:55;12.93;;;6.05;;
57923;SDS011;43737;50.632;3.070;2022-07-10T02:07:22;12.75;;;5.75;;
57923;SDS011;43737;50.632;3.070;2022-07-10T02:09:50;13.73;;;5.70;;
57923;SDS011;43737;50.632;3.070;2022-07-10T02:12:16;13.00;;;5.88;;
57923;SDS011;43737;50.632;3.070;2022-07-10T02:14:42;13.40;;;5.80;;
57923;SDS011;43737;50.632;3.070;2022-07-10T02:17:08;16.40;;;5.78;;
57923;SDS011;43737;50.632;3.070;2022-07-10T02:19:34;11.50;;;5.60;;
57923;SDS011;43737;50.632;3.070;2022-07-10T02:22:00;11.55;;;5.57;;
57923;SDS011;43737;50.632;3.070;2022-07-10T02:24:27;13.20;;;6.03;;
57923;SDS011;43737;50.632;3.070;2022-07-10T02:26:53;15.13;;;6.30;;
57923;SDS011;43737;50.632;3.070;2022-07-10T02:29:20;12.68;;;5.95;;
57923;SDS011;43737;50.632;3.070;2022-07-10T02:31:48;11.00;;;5.68;;
57923;SDS011;43737;50.632;3.070;2022-07-10T02:34:14;12.00;;;5.78;;
57923;SDS011;43737;50.632;3.070;2022-07-10T02:36:40;15.90;;;6.88;;
57923;SDS011;43737;50.632;3.070;2022-07-10T02:39:07;12.63;;;5.53;;
57923;SDS011;43737;50.632;3.070;2022-07-10T02:41:33;13.65;;;6.38;;
57923;SDS011;43737;50.632;3.070;2022-07-10T02:44:00;17.85;;;6.53;;
57923;SDS011;43737;50.632;3.070;2022-07-10T02:46:26;8.07;;;5.05;;
57923;SDS011;43737;50.632;3.070;2022-07-10T02:48:52;12.25;;;6.00;;
57923;SDS011;43737;50.632;3.070;2022-07-10T02:51:18;15.00;;;6.80;;
57923;SDS011;43737;50.632;3.070;2022-07-10T02:53:44;16.08;;;6.20;;
57923;SDS011;43737;50.632;3.070;2022-07-10T02:56:10;18.30;;;6.65;;
57923;SDS011;43737;50.632;3.070;2022-07-10T02:58:37;17.33;;;6.57;;
57923;SDS011;43737;50.632;3.070;2022-07-10T03:01:03;10.57;;;7.18;;
57923;SDS011;43737;50.632;3.070;2022-07-10T03:03:29;16.35;;;6.97;;
57923;SDS011;43737;50.632;3.070;2022-07-10T03:05:55;14.43;;;7.85;;
57923;SDS011;43737;50.632;3.070;2022-07-10T03:08:21;13.07;;;6.93;;
57923;SDS011;43737;50.632;3.070;2022-07-10T03:10:47;14.48;;;6.93;;
57923;SDS011;43737;50.632;3.070;2022-07-10T03:13:13;17.30;;;7.30;;
57923;SDS011;43737;50.632;3.070;2022-07-10T03:15:39;16.77;;;8.15;;
57923;SDS011;43737;50.632;3.070;2022-07-10T03:18:05;12.75;;;7.07;;
57923;SDS011;43737;50.632;3.070;2022-07-10T03:20:31;13.32;;;7.07;;
57923;SDS011;43737;50.632;3.070;2022-07-10T03:22:57;13.48;;;7.57;;
57923;SDS011;43737;50.632;3.070;2022-07-10T03:25:23;14.82;;;7.03;;
57923;SDS011;43737;50.632;3.070;2022-07-10T03:27:49;13.00;;;7.20;;
57923;SDS011;43737;50.632;3.070;2022-07-10T03:30:15;13.13;;;7.05;;
57923;SDS011;43737;50.632;3.070;2022-07-10T03:32:41;17.50;;;7.70;;
57923;SDS011;43737;50.632;3.070;2022-07-10T03:35:07;17.33;;;7.75;;
57923;SDS011;43737;50.632;3.070;2022-07-10T03:37:33;14.30;;;7.55;;
57923;SDS011;43737;50.632;3.070;2022-07-10T03:39:59;12.82;;;7.22;;
57923;SDS011;43737;50.632;3.070;2022-07-10T03:42:25;20.38;;;8.30;;
57923;SDS011;43737;50.632;3.070;2022-07-10T03:44:51;19.73;;;7.50;;
57923;SDS011;43737;50.632;3.070;2022-07-10T03:47:17;17.73;;;8.13;;
57923;SDS011;43737;50.632;3.070;2022-07-10T03:49:43;15.32;;;8.77;;
57923;SDS011;43737;50.632;3.070;2022-07-10T03:52:09;14.63;;;8.27;;
57923;SDS011;43737;50.632;3.070;2022-07-10T03:54:35;19.08;;;9.25;;
57923;SDS011;43737;50.632;3.070;2022-07-10T03:57:01;13.98;;;7.75;;
57923;SDS011;43737;50.632;3.070;2022-07-10T03:59:46;19.83;;;8.05;;
57923;SDS011;43737;50.632;3.070;2022-07-10T04:02:12;17.02;;;8.23;;
57923;SDS011;43737;50.632;3.070;2022-07-10T04:04:38;17.38;;;9.48;;
57923;SDS011;43737;50.632;3.070;2022-07-10T04:07:04;19.02;;;8.60;;
57923;SDS011;43737;50.632;3.070;2022-07-10T04:09:30;16.83;;;9.35;;
57923;SDS011;43737;50.632;3.070;2022-07-10T04:11:56;17.73;;;8.57;;
57923;SDS011;43737;50.632;3.070;2022-07-10T04:14:22;16.35;;;9.40;;
57923;SDS011;43737;50.632;3.070;2022-07-10T04:16:48;19.52;;;8.93;;
57923;SDS011;43737;50.632;3.070;2022-07-10T04:19:14;19.15;;;8.73;;
57923;SDS011;43737;50.632;3.070;2022-07-10T04:21:40;14.20;;;8.98;;
57923;SDS011;43737;50.632;3.070;2022-07-10T04:24:06;15.30;;;8.30;;
57923;SDS011;43737;50.632;3.070;2022-07-10T04:26:32;17.45;;;8.70;;
57923;SDS011;43737;50.632;3.070;2022-07-10T04:28:58;15.15;;;8.55;;
57923;SDS011;43737;50.632;3.070;2022-07-10T04:31:24;18.77;;;8.07;;
57923;SDS011;43737;50.632;3.070;2022-07-10T04:33:50;16.75;;;8.27;;
57923;SDS011;43737;50.632;3.070;2022-07-10T04:36:16;18.30;;;8.82;;
57923;SDS011;43737;50.632;3.070;2022-07-10T04:38:43;20.73;;;9.43;;
57923;SDS011;43737;50.632;3.070;2022-07-10T04:41:09;16.60;;;9.18;;
57923;SDS011;43737;50.632;3.070;2022-07-10T04:43:35;15.20;;;8.70;;
57923;SDS011;43737;50.632;3.070;2022-07-10T04:46:01;18.60;;;9.93;;
57923;SDS011;43737;50.632;3.070;2022-07-10T04:48:27;17.67;;;9.77;;
57923;SDS011;43737;50.632;3.070;2022-07-10T04:50:53;19.85;;;10.38;;
57923;SDS011;43737;50.632;3.070;2022-07-10T04:53:19;17.67;;;9.45;;
57923;SDS011;43737;50.632;3.070;2022-07-10T04:55:45;19.33;;;8.88;;
57923;SDS011;43737;50.632;3.070;2022-07-10T04:58:11;18.00;;;9.02;;
57923;SDS011;43737;50.632;3.070;2022-07-10T05:00:37;20.65;;;9.32;;
57923;SDS011;43737;50.632;3.070;2022-07-10T05:03:03;24.77;;;9.95;;
57923;SDS011;43737;50.632;3.070;2022-07-10T05:05:29;20.15;;;8.68;;
57923;SDS011;43737;50.632;3.070;2022-07-10T05:07:55;21.20;;;9.30;;
57923;SDS011;43737;50.632;3.070;2022-07-10T05:10:21;17.70;;;8.70;;
57923;SDS011;43737;50.632;3.070;2022-07-10T05:12:48;15.85;;;7.78;;
57923;SDS011;43737;50.632;3.070;2022-07-10T05:15:14;20.65;;;8.75;;
57923;SDS011;43737;50.632;3.070;2022-07-10T05:17:40;18.77;;;8.65;;
57923;SDS011;43737;50.632;3.070;2022-07-10T05:20:06;20.02;;;9.63;;
57923;SDS011;43737;50.632;3.070;2022-07-10T05:22:32;17.65;;;8.52;;
57923;SDS011;43737;50.632;3.070;2022-07-10T05:24:58;15.25;;;8.25;;
57923;SDS011;43737;50.632;3.070;2022-07-10T05:27:24;23.67;;;8.73;;
57923;SDS011;43737;50.632;3.070;2022-07-10T05:29:53;17.77;;;8.35;;
57923;SDS011;43737;50.632;3.070;2022-07-10T05:32:19;15.60;;;7.80;;
57923;SDS011;43737;50.632;3.070;2022-07-10T05:34:45;16.85;;;8.05;;
57923;SDS011;43737;50.632;3.070;2022-07-10T05:37:10;12.48;;;7.65;;
57923;SDS011;43737;50.632;3.070;2022-07-10T05:39:36;14.05;;;7.35;;
57923;SDS011;43737;50.632;3.070;2022-07-10T05:42:02;15.88;;;7.50;;
57923;SDS011;43737;50.632;3.070;2022-07-10T05:44:29;21.35;;;7.78;;
57923;SDS011;43737;50.632;3.070;2022-07-10T05:46:55;16.95;;;7.57;;
57923;SDS011;43737;50.632;3.070;2022-07-10T05:49:21;12.77;;;7.25;;
57923;SDS011;43737;50.632;3.070;2022-07-10T05:51:47;15.43;;;6.95;;
57923;SDS011;43737;50.632;3.070;2022-07-10T05:54:13;16.20;;;6.78;;
57923;SDS011;43737;50.632;3.070;2022-07-10T05:56:39;14.65;;;6.60;;
57923;SDS011;43737;50.632;3.070;2022-07-10T05:59:05;14.63;;;5.60;;
57923;SDS011;43737;50.632;3.070;2022-07-10T06:01:31;13.63;;;5.47;;
57923;SDS011;43737;50.632;3.070;2022-07-10T06:03:57;13.15;;;4.95;;
57923;SDS011;43737;50.632;3.070;2022-07-10T06:06:23;13.25;;;4.68;;
57923;SDS011;43737;50.632;3.070;2022-07-10T06:08:49;12.50;;;5.05;;
57923;SDS011;43737;50.632;3.070;2022-07-10T06:11:15;10.65;;;4.65;;
57923;SDS011;43737;50.632;3.070;2022-07-10T06:13:41;8.95;;;4.28;;
57923;SDS011;43737;50.632;3.070;2022-07-10T06:16:07;12.32;;;4.07;;
57923;SDS011;43737;50.632;3.070;2022-07-10T06:18:33;10.57;;;3.72;;
57923;SDS011;43737;50.632;3.070;2022-07-10T06:20:59;8.10;;;3.30;;
57923;SDS011;43737;50.632;3.070;2022-07-10T06:23:25;8.18;;;3.25;;
57923;SDS011;43737;50.632;3.070;2022-07-10T06:25:51;8.85;;;2.50;;
57923;SDS011;43737;50.632;3.070;2022-07-10T06:28:17;5.03;;;2.10;;
57923;SDS011;43737;50.632;3.070;2022-07-10T06:30:44;7.13;;;2.80;;
57923;SDS011;43737;50.632;3.070;2022-07-10T06:33:11;5.70;;;1.98;;
57923;SDS011;43737;50.632;3.070;2022-07-10T06:35:37;5.40;;;2.30;;
57923;SDS011;43737;50.632;3.070;2022-07-10T06:38:03;4.72;;;1.95;;
57923;SDS011;43737;50.632;3.070;2022-07-10T06:40:29;5.88;;;2.55;;
57923;SDS011;43737;50.632;3.070;2022-07-10T06:42:55;10.20;;;2.28;;
57923;SDS011;43737;50.632;3.070;2022-07-10T06:45:21;5.85;;;2.25;;
57923;SDS011;43737;50.632;3.070;2022-07-10T06:47:47;11.35;;;2.45;;
57923;SDS011;43737;50.632;3.070;2022-07-10T06:50:27;7.35;;;2.45;;
57923;SDS011;43737;50.632;3.070;2022-07-10T06:52:58;6.50;;;2.35;;
57923;SDS011;43737;50.632;3.070;2022-07-10T06:55:24;7.35;;;2.38;;
57923;SDS011;43737;50.632;3.070;2022-07-10T06:57:51;7.57;;;2.65;;
57923;SDS011;43737;50.632;3.070;2022-07-10T07:00:17;7.25;;;2.50;;
57923;SDS011;43737;50.632;3.070;2022-07-10T07:02:43;6.28;;;2.67;;
57923;SDS011;43737;50.632;3.070;2022-07-10T07:05:09;6.10;;;2.42;;
57923;SDS011;43737;50.632;3.070;2022-07-10T07:07:35;5.68;;;2.08;;
57923;SDS011;43737;50.632;3.070;2022-07-10T07:10:02;6.28;;;2.08;;
57923;SDS011;43737;50.632;3.070;2022-07-10T07:12:28;7.20;;;2.50;;
57923;SDS011;43737;50.632;3.070;2022-07-10T07:14:54;5.60;;;2.05;;
57923;SDS011;43737;50.632;3.070;2022-07-10T07:17:20;5.07;;;1.70;;
57923;SDS011;43737;50.632;3.070;2022-07-10T07:19:47;5.22;;;1.80;;
57923;SDS011;43737;50.632;3.070;2022-07-10T07:22:32;6.90;;;1.70;;
57923;SDS011;43737;50.632;3.070;2022-07-10T07:25:17;11.25;;;2.13;;
57923;SDS011;43737;50.632;3.070;2022-07-10T07:27:43;2.13;;;1.45;;
57923;SDS011;43737;50.632;3.070;2022-07-10T07:30:10;5.90;;;2.17;;
57923;SDS011;43737;50.632;3.070;2022-07-10T07:32:37;6.05;;;2.03;;
57923;SDS011;43737;50.632;3.070;2022-07-10T07:35:03;6.15;;;1.98;;
57923;SDS011;43737;50.632;3.070;2022-07-10T07:37:39;5.80;;;1.92;;
57923;SDS011;43737;50.632;3.070;2022-07-10T07:40:07;6.07;;;1.75;;
57923;SDS011;43737;50.632;3.070;2022-07-10T07:42:33;7.45;;;2.13;;
57923;SDS011;43737;50.632;3.070;2022-07-10T07:44:59;5.63;;;1.95;;
57923;SDS011;43737;50.632;3.070;2022-07-10T07:47:25;5.53;;;1.75;;
57923;SDS011;43737;50.632;3.070;2022-07-10T07:49:51;6.03;;;1.65;;
57923;SDS011;43737;50.632;3.070;2022-07-10T07:52:17;5.38;;;2.00;;
57923;SDS011;43737;50.632;3.070;2022-07-10T07:54:43;4.55;;;1.98;;
57923;SDS011;43737;50.632;3.070;2022-07-10T07:57:10;3.00;;;1.67;;
57923;SDS011;43737;50.632;3.070;2022-07-10T07:59:36;3.03;;;1.67;;
57923;SDS011;43737;50.632;3.070;2022-07-10T08:02:02;5.65;;;1.75;;
57923;SDS011;43737;50.632;3.070;2022-07-10T08:04:28;3.75;;;1.55;;
57923;SDS011;43737;50.632;3.070;2022-07-10T08:06:54;4.75;;;1.90;;
57923;SDS011;43737;50.632;3.070;2022-07-10T08:09:20;5.47;;;1.77;;
57923;SDS011;43737;50.632;3.070;2022-07-10T08:11:46;3.42;;;1.63;;
57923;SDS011;43737;50.632;3.070;2022-07-10T08:14:13;3.90;;;1.80;;
57923;SDS011;43737;50.632;3.070;2022-07-10T08:16:39;2.88;;;1.67;;
57923;SDS011;43737;50.632;3.070;2022-07-10T08:19:05;4.22;;;1.50;;
57923;SDS011;43737;50.632;3.070;2022-07-10T08:21:32;5.35;;;1.90;;
57923;SDS011;43737;50.632;3.070;2022-07-10T08:23:59;5.90;;;1.80;;
57923;SDS011;43737;50.632;3.070;2022-07-10T08:26:25;2.95;;;1.48;;
57923;SDS011;43737;50.632;3.070;2022-07-10T08:28:51;3.10;;;1.92;;
57923;SDS011;43737;50.632;3.070;2022-07-10T08:31:17;3.40;;;1.98;;
57923;SDS011;43737;50.632;3.070;2022-07-10T08:33:43;5.40;;;1.98;;
57923;SDS011;43737;50.632;3.070;2022-07-10T08:36:09;3.22;;;1.75;;
57923;SDS011;43737;50.632;3.070;2022-07-10T08:38:35;5.75;;;1.90;;
57923;SDS011;43737;50.632;3.070;2022-07-10T08:41:01;7.18;;;5.05;;
57923;SDS011;43737;50.632;3.070;2022-07-10T08:43:29;4.50;;;2.08;;
57923;SDS011;43737;50.632;3.070;2022-07-10T08:45:56;6.40;;;1.98;;
57923;SDS011;43737;50.632;3.070;2022-07-10T08:48:24;4.40;;;1.88;;
57923;SDS011;43737;50.632;3.070;2022-07-10T08:50:53;4.72;;;1.90;;
57923;SDS011;43737;50.632;3.070;2022-07-10T08:55:45;3.83;;;1.75;;
57923;SDS011;43737;50.632;3.070;2022-07-10T08:58:12;10.45;;;5.97;;
57923;SDS011;43737;50.632;3.070;2022-07-10T09:00:38;7.68;;;2.33;;
57923;SDS011;43737;50.632;3.070;2022-07-10T09:03:05;3.88;;;2.05;;
57923;SDS011;43737;50.632;3.070;2022-07-10T09:05:31;4.78;;;1.85;;
57923;SDS011;43737;50.632;3.070;2022-07-10T09:07:57;3.85;;;1.83;;
57923;SDS011;43737;50.632;3.070;2022-07-10T09:10:24;5.55;;;2.22;;
57923;SDS011;43737;50.632;3.070;2022-07-10T09:12:54;8.05;;;2.00;;
57923;SDS011;43737;50.632;3.070;2022-07-10T09:15:22;5.20;;;2.15;;
57923;SDS011;43737;50.632;3.070;2022-07-10T09:17:58;3.08;;;2.15;;
57923;SDS011;43737;50.632;3.070;2022-07-10T09:20:36;5.35;;;2.83;;
57923;SDS011;43737;50.632;3.070;2022-07-10T09:23:12;4.10;;;2.10;;
57923;SDS011;43737;50.632;3.070;2022-07-10T09:25:41;3.70;;;2.40;;
57923;SDS011;43737;50.632;3.070;2022-07-10T09:28:07;4.85;;;2.55;;
57923;SDS011;43737;50.632;3.070;2022-07-10T09:30:34;3.40;;;2.15;;
57923;SDS011;43737;50.632;3.070;2022-07-10T09:35:58;4.88;;;2.33;;
57923;SDS011;43737;50.632;3.070;2022-07-10T09:38:52;4.45;;;2.15;;
57923;SDS011;43737;50.632;3.070;2022-07-10T09:41:20;3.42;;;1.75;;
57923;SDS011;43737;50.632;3.070;2022-07-10T09:43:47;4.22;;;1.90;;
57923;SDS011;43737;50.632;3.070;2022-07-10T09:46:14;4.38;;;1.90;;
57923;SDS011;43737;50.632;3.070;2022-07-10T09:48:40;2.78;;;1.75;;
57923;SDS011;43737;50.632;3.070;2022-07-10T09:51:07;3.90;;;2.30;;
57923;SDS011;43737;50.632;3.070;2022-07-10T09:53:40;4.35;;;2.17;;
57923;SDS011;43737;50.632;3.070;2022-07-10T09:56:08;4.20;;;2.28;;
57923;SDS011;43737;50.632;3.070;2022-07-10T09:58:34;6.22;;;1.85;;
57923;SDS011;43737;50.632;3.070;2022-07-10T10:01:01;4.07;;;1.90;;
57923;SDS011;43737;50.632;3.070;2022-07-10T10:03:28;4.25;;;2.05;;
57923;SDS011;43737;50.632;3.070;2022-07-10T10:06:17;4.22;;;2.13;;
57923;SDS011;43737;50.632;3.070;2022-07-10T10:11:08;3.75;;;1.80;;
57923;SDS011;43737;50.632;3.070;2022-07-10T10:13:39;4.82;;;2.50;;
57923;SDS011;43737;50.632;3.070;2022-07-10T10:16:05;5.72;;;4.32;;
57923;SDS011;43737;50.632;3.070;2022-07-10T10:18:33;4.63;;;2.53;;
57923;SDS011;43737;50.632;3.070;2022-07-10T10:21:00;4.72;;;3.00;;
57923;SDS011;43737;50.632;3.070;2022-07-10T10:23:26;6.40;;;3.15;;
57923;SDS011;43737;50.632;3.070;2022-07-10T10:25:55;4.15;;;2.78;;
57923;SDS011;43737;50.632;3.070;2022-07-10T10:28:22;5.03;;;2.10;;
57923;SDS011;43737;50.632;3.070;2022-07-10T10:30:48;4.25;;;2.65;;
57923;SDS011;43737;50.632;3.070;2022-07-10T10:36:00;7.90;;;2.60;;
57923;SDS011;43737;50.632;3.070;2022-07-10T10:41:25;3.15;;;2.13;;
57923;SDS011;43737;50.632;3.070;2022-07-10T10:49:18;2.80;;;2.25;;
57923;SDS011;43737;50.632;3.070;2022-07-10T10:54:28;4.55;;;2.58;;
57923;SDS011;43737;50.632;3.070;2022-07-10T10:57:13;5.70;;;2.53;;
57923;SDS011;43737;50.632;3.070;2022-07-10T10:59:55;3.47;;;2.08;;
57923;SDS011;43737;50.632;3.070;2022-07-10T11:04:49;5.00;;;3.00;;
57923;SDS011;43737;50.632;3.070;2022-07-10T11:10:26;5.97;;;3.30;;
57923;SDS011;43737;50.632;3.070;2022-07-10T11:15:22;5.13;;;3.72;;
57923;SDS011;43737;50.632;3.070;2022-07-10T11:17:48;4.45;;;3.08;;
57923;SDS011;43737;50.632;3.070;2022-07-10T11:20:14;3.72;;;2.30;;
57923;SDS011;43737;50.632;3.070;2022-07-10T11:22:43;4.60;;;2.28;;
57923;SDS011;43737;50.632;3.070;2022-07-10T11:28:05;4.60;;;1.85;;
57923;SDS011;43737;50.632;3.070;2022-07-10T11:30:43;3.63;;;2.10;;
57923;SDS011;43737;50.632;3.070;2022-07-10T11:33:09;3.20;;;1.65;;
57923;SDS011;43737;50.632;3.070;2022-07-10T11:35:35;3.08;;;2.13;;
57923;SDS011;43737;50.632;3.070;2022-07-10T11:38:01;4.35;;;2.10;;
57923;SDS011;43737;50.632;3.070;2022-07-10T11:40:27;4.60;;;2.10;;
57923;SDS011;43737;50.632;3.070;2022-07-10T11:42:54;5.15;;;2.30;;
57923;SDS011;43737;50.632;3.070;2022-07-10T11:47:47;5.18;;;2.08;;
57923;SDS011;43737;50.632;3.070;2022-07-10T11:50:13;2.53;;;1.45;;
57923;SDS011;43737;50.632;3.070;2022-07-10T11:52:40;5.78;;;2.10;;
57923;SDS011;43737;50.632;3.070;2022-07-10T11:55:15;2.33;;;1.98;;
57923;SDS011;43737;50.632;3.070;2022-07-10T11:57:41;1.83;;;1.48;;
57923;SDS011;43737;50.632;3.070;2022-07-10T12:00:23;3.40;;;1.88;;
57923;SDS011;43737;50.632;3.070;2022-07-10T12:02:49;3.72;;;1.88;;
57923;SDS011;43737;50.632;3.070;2022-07-10T12:05:31;5.20;;;2.30;;
57923;SDS011;43737;50.632;3.070;2022-07-10T12:07:58;4.93;;;1.90;;
57923;SDS011;43737;50.632;3.070;2022-07-10T12:10:28;2.22;;;1.50;;
57923;SDS011;43737;50.632;3.070;2022-07-10T12:15:30;3.17;;;1.83;;
57923;SDS011;43737;50.632;3.070;2022-07-10T12:17:56;5.38;;;2.40;;
57923;SDS011;43737;50.632;3.070;2022-07-10T12:20:22;5.03;;;2.00;;
57923;SDS011;43737;50.632;3.070;2022-07-10T12:22:48;3.15;;;1.90;;
57923;SDS011;43737;50.632;3.070;2022-07-10T12:25:14;2.60;;;2.00;;
57923;SDS011;43737;50.632;3.070;2022-07-10T12:27:41;4.00;;;2.03;;
57923;SDS011;43737;50.632;3.070;2022-07-10T12:30:07;4.18;;;1.65;;
57923;SDS011;43737;50.632;3.070;2022-07-10T12:32:33;2.83;;;1.55;;
57923;SDS011;43737;50.632;3.070;2022-07-10T12:34:59;3.80;;;1.65;;
57923;SDS011;43737;50.632;3.070;2022-07-10T12:37:25;3.97;;;1.50;;
57923;SDS011;43737;50.632;3.070;2022-07-10T12:39:52;3.83;;;2.08;;
57923;SDS011;43737;50.632;3.070;2022-07-10T12:42:31;2.92;;;1.70;;
57923;SDS011;43737;50.632;3.070;2022-07-10T12:47:48;5.35;;;2.17;;
57923;SDS011;43737;50.632;3.070;2022-07-10T12:50:15;2.67;;;2.05;;
57923;SDS011;43737;50.632;3.070;2022-07-10T12:52:45;2.70;;;1.70;;
57923;SDS011;43737;50.632;3.070;2022-07-10T13:00:12;2.85;;;1.70;;
57923;SDS011;43737;50.632;3.070;2022-07-10T13:02:38;2.92;;;1.42;;
57923;SDS011;43737;50.632;3.070;2022-07-10T13:05:04;2.08;;;1.45;;
57923;SDS011;43737;50.632;3.070;2022-07-10T13:07:31;2.55;;;1.52;;
57923;SDS011;43737;50.632;3.070;2022-07-10T13:10:01;2.70;;;1.50;;
57923;SDS011;43737;50.632;3.070;2022-07-10T13:12:27;2.42;;;1.50;;
57923;SDS011;43737;50.632;3.070;2022-07-10T13:14:53;2.95;;;1.75;;
57923;SDS011;43737;50.632;3.070;2022-07-10T13:17:19;2.08;;;1.58;;
57923;SDS011;43737;50.632;3.070;2022-07-10T13:19:45;3.20;;;1.58;;
57923;SDS011;43737;50.632;3.070;2022-07-10T13:22:11;3.72;;;1.38;;
57923;SDS011;43737;50.632;3.070;2022-07-10T13:24:37;1.48;;;1.38;;
57923;SDS011;43737;50.632;3.070;2022-07-10T13:27:04;2.90;;;1.30;;
57923;SDS011;43737;50.632;3.070;2022-07-10T13:29:31;3.25;;;1.45;;
57923;SDS011;43737;50.632;3.070;2022-07-10T13:31:57;4.80;;;1.77;;
57923;SDS011;43737;50.632;3.070;2022-07-10T13:34:23;3.30;;;1.50;;
57923;SDS011;43737;50.632;3.070;2022-07-10T13:36:49;2.60;;;1.40;;
57923;SDS011;43737;50.632;3.070;2022-07-10T13:39:16;4.88;;;1.83;;
57923;SDS011;43737;50.632;3.070;2022-07-10T13:41:42;2.08;;;1.40;;
57923;SDS011;43737;50.632;3.070;2022-07-10T13:44:08;2.22;;;1.63;;
57923;SDS011;43737;50.632;3.070;2022-07-10T13:46:34;4.30;;;1.63;;
57923;SDS011;43737;50.632;3.070;2022-07-10T13:49:02;2.92;;;1.40;;
57923;SDS011;43737;50.632;3.070;2022-07-10T13:51:28;2.47;;;1.38;;
57923;SDS011;43737;50.632;3.070;2022-07-10T13:53:54;4.72;;;1.40;;
57923;SDS011;43737;50.632;3.070;2022-07-10T13:56:20;2.63;;;1.58;;
57923;SDS011;43737;50.632;3.070;2022-07-10T13:58:46;2.72;;;1.25;;
57923;SDS011;43737;50.632;3.070;2022-07-10T14:01:13;3.50;;;1.42;;
57923;SDS011;43737;50.632;3.070;2022-07-10T14:03:39;2.53;;;1.75;;
57923;SDS011;43737;50.632;3.070;2022-07-10T14:06:05;2.55;;;1.67;;
57923;SDS011;43737;50.632;3.070;2022-07-10T14:08:31;2.83;;;1.42;;
57923;SDS011;43737;50.632;3.070;2022-07-10T14:10:57;3.28;;;1.40;;
57923;SDS011;43737;50.632;3.070;2022-07-10T14:13:24;2.58;;;1.40;;
57923;SDS011;43737;50.632;3.070;2022-07-10T14:15:50;4.85;;;1.40;;
57923;SDS011;43737;50.632;3.070;2022-07-10T14:18:16;2.22;;;1.20;;
57923;SDS011;43737;50.632;3.070;2022-07-10T14:21:00;1.33;;;1.23;;
57923;SDS011;43737;50.632;3.070;2022-07-10T14:23:29;2.55;;;1.20;;
57923;SDS011;43737;50.632;3.070;2022-07-10T14:25:55;1.90;;;1.40;;
57923;SDS011;43737;50.632;3.070;2022-07-10T14:28:21;4.72;;;1.00;;
57923;SDS011;43737;50.632;3.070;2022-07-10T14:30:48;2.13;;;1.27;;
57923;SDS011;43737;50.632;3.070;2022-07-10T14:33:14;2.42;;;1.38;;
57923;SDS011;43737;50.632;3.070;2022-07-10T14:35:41;3.13;;;1.63;;
57923;SDS011;43737;50.632;3.070;2022-07-10T14:38:07;2.20;;;1.40;;
57923;SDS011;43737;50.632;3.070;2022-07-10T14:40:33;2.42;;;1.20;;
57923;SDS011;43737;50.632;3.070;2022-07-10T14:42:59;2.70;;;1.60;;
57923;SDS011;43737;50.632;3.070;2022-07-10T14:45:25;2.00;;;1.20;;
57923;SDS011;43737;50.632;3.070;2022-07-10T14:47:51;2.45;;;1.40;;
57923;SDS011;43737;50.632;3.070;2022-07-10T14:50:19;1.50;;;1.27;;
57923;SDS011;43737;50.632;3.070;2022-07-10T14:52:45;1.80;;;1.10;;
57923;SDS011;43737;50.632;3.070;2022-07-10T14:55:11;1.60;;;1.05;;
57923;SDS011;43737;50.632;3.070;2022-07-10T14:57:37;2.85;;;1.17;;
57923;SDS011;43737;50.632;3.070;2022-07-10T15:00:03;3.95;;;1.35;;
57923;SDS011;43737;50.632;3.070;2022-07-10T15:02:30;4.30;;;1.27;;
57923;SDS011;43737;50.632;3.070;2022-07-10T15:04:56;1.73;;;1.20;;
57923;SDS011;43737;50.632;3.070;2022-07-10T15:07:22;2.83;;;1.30;;
57923;SDS011;43737;50.632;3.070;2022-07-10T15:09:48;3.10;;;1.30;;
57923;SDS011;43737;50.632;3.070;2022-07-10T15:12:14;2.92;;;1.30;;
57923;SDS011;43737;50.632;3.070;2022-07-10T15:14:40;3.15;;;1.27;;
57923;SDS011;43737;50.632;3.070;2022-07-10T15:17:06;2.58;;;1.23;;
57923;SDS011;43737;50.632;3.070;2022-07-10T15:19:32;1.52;;;1.08;;
57923;SDS011;43737;50.632;3.070;2022-07-10T15:21:58;2.75;;;1.17;;
57923;SDS011;43737;50.632;3.070;2022-07-10T15:24:24;4.55;;;1.20;;
57923;SDS011;43737;50.632;3.070;2022-07-10T15:26:50;2.10;;;1.50;;